sensor_id;sensor_type;location;lat;lon;timestamp;P1;durP1;ratioP1;P2;durP2;ratioP2
52102;SDS011;38101;53.126;6.878;2023-08-24T00:00:55;4.40;;;3.38;;
52102;SDS011;38101;53.126;6.878;2023-08-24T00:03:21;5.32;;;3.85;;
52102;SDS011;38101;53.126;6.878;2023-08-24T00:05:47;6.57;;;4.00;;
52102;SDS011;38101;53.126;6.878;2023-08-24T00:08:13;5.47;;;4.03;;
52102;SDS011;38101;53.126;6.878;2023-08-24T00:10:39;6.40;;;4.25;;
52102;SDS011;38101;53.126;6.878;2023-08-24T00:13:08;5.72;;;4.00;;
52102;SDS011;38101;53.126;6.878;2023-08-24T00:15:34;6.85;;;4.13;;
52102;SDS011;38101;53.126;6.878;2023-08-24T00:18:01;5.68;;;4.35;;
52102;SDS011;38101;53.126;6.878;2023-08-24T00:20:27;4.90;;;3.92;;
52102;SDS011;38101;53.126;6.878;2023-08-24T00:22:52;6.15;;;4.57;;
52102;SDS011;38101;53.126;6.878;2023-08-24T00:25:18;5.97;;;3.78;;
52102;SDS011;38101;53.126;6.878;2023-08-24T00:27:44;5.97;;;4.18;;
52102;SDS011;38101;53.126;6.878;2023-08-24T00:30:09;4.93;;;3.97;;
52102;SDS011;38101;53.126;6.878;2023-08-24T00:32:36;5.50;;;4.22;;
52102;SDS011;38101;53.126;6.878;2023-08-24T00:35:02;7.15;;;4.30;;
52102;SDS011;38101;53.126;6.878;2023-08-24T00:37:32;6.68;;;4.28;;
52102;SDS011;38101;53.126;6.878;2023-08-24T00:40:01;5.68;;;3.80;;
52102;SDS011;38101;53.126;6.878;2023-08-24T00:42:41;5.43;;;3.78;;
52102;SDS011;38101;53.126;6.878;2023-08-24T00:45:08;5.47;;;3.30;;
52102;SDS011;38101;53.126;6.878;2023-08-24T00:47:35;5.57;;;3.47;;
52102;SDS011;38101;53.126;6.878;2023-08-24T00:50:02;4.40;;;3.45;;
52102;SDS011;38101;53.126;6.878;2023-08-24T00:52:28;5.40;;;3.53;;
52102;SDS011;38101;53.126;6.878;2023-08-24T00:54:57;7.30;;;4.72;;
52102;SDS011;38101;53.126;6.878;2023-08-24T00:57:23;4.57;;;3.90;;
52102;SDS011;38101;53.126;6.878;2023-08-24T00:59:49;6.40;;;4.25;;
52102;SDS011;38101;53.126;6.878;2023-08-24T01:02:15;5.18;;;3.78;;
52102;SDS011;38101;53.126;6.878;2023-08-24T01:04:41;5.43;;;3.90;;
52102;SDS011;38101;53.126;6.878;2023-08-24T01:07:07;6.45;;;3.72;;
52102;SDS011;38101;53.126;6.878;2023-08-24T01:09:34;5.00;;;3.78;;
52102;SDS011;38101;53.126;6.878;2023-08-24T01:12:02;6.95;;;4.50;;
52102;SDS011;38101;53.126;6.878;2023-08-24T01:17:27;5.80;;;4.72;;
52102;SDS011;38101;53.126;6.878;2023-08-24T01:19:55;6.40;;;4.40;;
52102;SDS011;38101;53.126;6.878;2023-08-24T01:27:29;7.65;;;5.05;;
52102;SDS011;38101;53.126;6.878;2023-08-24T01:29:59;6.43;;;4.80;;
52102;SDS011;38101;53.126;6.878;2023-08-24T01:32:29;6.78;;;4.30;;
52102;SDS011;38101;53.126;6.878;2023-08-24T01:34:56;7.57;;;4.97;;
52102;SDS011;38101;53.126;6.878;2023-08-24T01:37:22;6.43;;;4.78;;
52102;SDS011;38101;53.126;6.878;2023-08-24T01:39:57;5.53;;;4.53;;
52102;SDS011;38101;53.126;6.878;2023-08-24T01:42:40;6.25;;;4.63;;
52102;SDS011;38101;53.126;6.878;2023-08-24T01:45:13;7.88;;;4.95;;
52102;SDS011;38101;53.126;6.878;2023-08-24T01:47:40;5.40;;;4.03;;
52102;SDS011;38101;53.126;6.878;2023-08-24T01:50:08;6.50;;;4.22;;
52102;SDS011;38101;53.126;6.878;2023-08-24T01:52:34;4.22;;;3.45;;
52102;SDS011;38101;53.126;6.878;2023-08-24T01:55:00;4.45;;;3.78;;
52102;SDS011;38101;53.126;6.878;2023-08-24T01:57:26;6.47;;;4.43;;
52102;SDS011;38101;53.126;6.878;2023-08-24T01:59:51;6.63;;;4.50;;
52102;SDS011;38101;53.126;6.878;2023-08-24T02:02:17;5.45;;;4.70;;
52102;SDS011;38101;53.126;6.878;2023-08-24T02:04:43;5.28;;;4.38;;
52102;SDS011;38101;53.126;6.878;2023-08-24T02:07:08;5.72;;;4.70;;
52102;SDS011;38101;53.126;6.878;2023-08-24T02:09:34;6.95;;;5.45;;
52102;SDS011;38101;53.126;6.878;2023-08-24T02:12:00;5.40;;;4.80;;
52102;SDS011;38101;53.126;6.878;2023-08-24T02:14:25;6.43;;;5.82;;
52102;SDS011;38101;53.126;6.878;2023-08-24T02:16:51;7.20;;;5.40;;
52102;SDS011;38101;53.126;6.878;2023-08-24T02:19:17;7.05;;;5.13;;
52102;SDS011;38101;53.126;6.878;2023-08-24T02:21:42;6.32;;;5.35;;
52102;SDS011;38101;53.126;6.878;2023-08-24T02:24:08;7.50;;;5.55;;
52102;SDS011;38101;53.126;6.878;2023-08-24T02:26:33;6.85;;;5.38;;
52102;SDS011;38101;53.126;6.878;2023-08-24T02:28:59;8.05;;;5.75;;
52102;SDS011;38101;53.126;6.878;2023-08-24T02:31:25;7.18;;;5.53;;
52102;SDS011;38101;53.126;6.878;2023-08-24T02:33:50;8.48;;;5.40;;
52102;SDS011;38101;53.126;6.878;2023-08-24T02:36:16;7.63;;;5.65;;
52102;SDS011;38101;53.126;6.878;2023-08-24T02:38:42;8.68;;;5.93;;
52102;SDS011;38101;53.126;6.878;2023-08-24T02:41:08;7.85;;;5.63;;
52102;SDS011;38101;53.126;6.878;2023-08-24T02:43:35;6.32;;;4.95;;
52102;SDS011;38101;53.126;6.878;2023-08-24T02:46:06;6.97;;;5.50;;
52102;SDS011;38101;53.126;6.878;2023-08-24T02:48:33;6.82;;;5.07;;
52102;SDS011;38101;53.126;6.878;2023-08-24T02:51:00;8.82;;;5.10;;
52102;SDS011;38101;53.126;6.878;2023-08-24T02:53:27;7.47;;;5.45;;
52102;SDS011;38101;53.126;6.878;2023-08-24T02:55:53;6.95;;;5.60;;
52102;SDS011;38101;53.126;6.878;2023-08-24T02:58:20;6.78;;;5.10;;
52102;SDS011;38101;53.126;6.878;2023-08-24T03:00:46;7.38;;;5.20;;
52102;SDS011;38101;53.126;6.878;2023-08-24T03:03:13;8.10;;;5.57;;
52102;SDS011;38101;53.126;6.878;2023-08-24T03:05:40;8.65;;;5.65;;
52102;SDS011;38101;53.126;6.878;2023-08-24T03:08:06;7.68;;;5.60;;
52102;SDS011;38101;53.126;6.878;2023-08-24T03:10:35;7.30;;;5.82;;
52102;SDS011;38101;53.126;6.878;2023-08-24T03:13:00;7.93;;;5.40;;
52102;SDS011;38101;53.126;6.878;2023-08-24T03:15:26;7.35;;;5.10;;
52102;SDS011;38101;53.126;6.878;2023-08-24T03:17:52;5.93;;;5.22;;
52102;SDS011;38101;53.126;6.878;2023-08-24T03:20:18;8.43;;;5.43;;
52102;SDS011;38101;53.126;6.878;2023-08-24T03:22:44;6.50;;;5.07;;
52102;SDS011;38101;53.126;6.878;2023-08-24T03:25:09;7.55;;;5.43;;
52102;SDS011;38101;53.126;6.878;2023-08-24T03:27:35;9.18;;;5.53;;
52102;SDS011;38101;53.126;6.878;2023-08-24T03:30:01;6.53;;;5.43;;
52102;SDS011;38101;53.126;6.878;2023-08-24T03:32:29;6.97;;;5.20;;
52102;SDS011;38101;53.126;6.878;2023-08-24T03:34:58;6.65;;;5.13;;
52102;SDS011;38101;53.126;6.878;2023-08-24T03:37:24;8.50;;;5.15;;
52102;SDS011;38101;53.126;6.878;2023-08-24T03:39:50;6.25;;;4.93;;
52102;SDS011;38101;53.126;6.878;2023-08-24T03:42:16;7.78;;;5.43;;
52102;SDS011;38101;53.126;6.878;2023-08-24T03:44:41;6.57;;;5.28;;
52102;SDS011;38101;53.126;6.878;2023-08-24T03:47:07;6.38;;;5.45;;
52102;SDS011;38101;53.126;6.878;2023-08-24T03:49:33;7.35;;;5.50;;
52102;SDS011;38101;53.126;6.878;2023-08-24T03:51:59;7.35;;;5.43;;
52102;SDS011;38101;53.126;6.878;2023-08-24T03:54:25;8.45;;;5.82;;
52102;SDS011;38101;53.126;6.878;2023-08-24T03:56:50;8.20;;;5.90;;
52102;SDS011;38101;53.126;6.878;2023-08-24T03:59:16;7.68;;;5.85;;
52102;SDS011;38101;53.126;6.878;2023-08-24T04:01:42;7.88;;;6.13;;
52102;SDS011;38101;53.126;6.878;2023-08-24T04:04:08;8.88;;;6.57;;
52102;SDS011;38101;53.126;6.878;2023-08-24T04:06:34;7.97;;;6.47;;
52102;SDS011;38101;53.126;6.878;2023-08-24T04:08:59;9.48;;;7.28;;
52102;SDS011;38101;53.126;6.878;2023-08-24T04:11:25;9.07;;;6.93;;
52102;SDS011;38101;53.126;6.878;2023-08-24T04:13:50;9.68;;;6.82;;
52102;SDS011;38101;53.126;6.878;2023-08-24T04:16:16;13.93;;;7.75;;
52102;SDS011;38101;53.126;6.878;2023-08-24T04:18:42;10.70;;;7.93;;
52102;SDS011;38101;53.126;6.878;2023-08-24T04:21:08;10.90;;;7.63;;
52102;SDS011;38101;53.126;6.878;2023-08-24T04:23:33;13.02;;;8.45;;
52102;SDS011;38101;53.126;6.878;2023-08-24T04:25:59;11.25;;;7.28;;
52102;SDS011;38101;53.126;6.878;2023-08-24T04:28:25;12.00;;;7.75;;
52102;SDS011;38101;53.126;6.878;2023-08-24T04:30:51;10.20;;;7.93;;
52102;SDS011;38101;53.126;6.878;2023-08-24T04:33:17;13.68;;;7.82;;
52102;SDS011;38101;53.126;6.878;2023-08-24T04:35:45;9.68;;;7.47;;
52102;SDS011;38101;53.126;6.878;2023-08-24T04:38:15;10.02;;;7.85;;
52102;SDS011;38101;53.126;6.878;2023-08-24T04:40:59;10.82;;;8.30;;
52102;SDS011;38101;53.126;6.878;2023-08-24T04:43:25;10.55;;;8.07;;
52102;SDS011;38101;53.126;6.878;2023-08-24T04:45:51;8.68;;;7.57;;
52102;SDS011;38101;53.126;6.878;2023-08-24T04:48:19;8.88;;;7.32;;
52102;SDS011;38101;53.126;6.878;2023-08-24T04:50:45;13.00;;;7.75;;
52102;SDS011;38101;53.126;6.878;2023-08-24T04:53:12;9.38;;;7.47;;
52102;SDS011;38101;53.126;6.878;2023-08-24T04:55:39;12.23;;;8.07;;
52102;SDS011;38101;53.126;6.878;2023-08-24T04:58:06;10.20;;;7.65;;
52102;SDS011;38101;53.126;6.878;2023-08-24T05:00:32;10.00;;;7.40;;
52102;SDS011;38101;53.126;6.878;2023-08-24T05:02:58;12.18;;;7.97;;
52102;SDS011;38101;53.126;6.878;2023-08-24T05:05:24;10.18;;;8.10;;
52102;SDS011;38101;53.126;6.878;2023-08-24T05:07:50;10.35;;;7.43;;
52102;SDS011;38101;53.126;6.878;2023-08-24T05:10:16;13.02;;;8.27;;
52102;SDS011;38101;53.126;6.878;2023-08-24T05:12:41;10.63;;;7.88;;
52102;SDS011;38101;53.126;6.878;2023-08-24T05:15:07;11.13;;;7.32;;
52102;SDS011;38101;53.126;6.878;2023-08-24T05:17:33;9.93;;;7.90;;
52102;SDS011;38101;53.126;6.878;2023-08-24T05:19:59;10.75;;;7.63;;
52102;SDS011;38101;53.126;6.878;2023-08-24T05:22:24;9.57;;;7.47;;
52102;SDS011;38101;53.126;6.878;2023-08-24T05:24:50;11.20;;;7.90;;
52102;SDS011;38101;53.126;6.878;2023-08-24T05:27:16;12.43;;;8.18;;
52102;SDS011;38101;53.126;6.878;2023-08-24T05:29:42;10.82;;;7.43;;
52102;SDS011;38101;53.126;6.878;2023-08-24T05:32:08;11.18;;;6.82;;
52102;SDS011;38101;53.126;6.878;2023-08-24T05:34:33;9.75;;;7.13;;
52102;SDS011;38101;53.126;6.878;2023-08-24T05:36:59;9.55;;;6.80;;
52102;SDS011;38101;53.126;6.878;2023-08-24T05:39:25;11.00;;;7.38;;
52102;SDS011;38101;53.126;6.878;2023-08-24T05:41:51;11.57;;;7.40;;
52102;SDS011;38101;53.126;6.878;2023-08-24T05:44:17;13.60;;;6.85;;
52102;SDS011;38101;53.126;6.878;2023-08-24T05:46:44;10.57;;;7.53;;
52102;SDS011;38101;53.126;6.878;2023-08-24T05:49:10;11.98;;;7.05;;
52102;SDS011;38101;53.126;6.878;2023-08-24T05:51:36;11.48;;;6.93;;
52102;SDS011;38101;53.126;6.878;2023-08-24T05:54:02;9.40;;;7.55;;
52102;SDS011;38101;53.126;6.878;2023-08-24T05:56:28;10.80;;;7.38;;
52102;SDS011;38101;53.126;6.878;2023-08-24T05:58:54;10.65;;;7.53;;
52102;SDS011;38101;53.126;6.878;2023-08-24T06:01:20;9.52;;;7.32;;
52102;SDS011;38101;53.126;6.878;2023-08-24T06:03:46;13.50;;;7.45;;
52102;SDS011;38101;53.126;6.878;2023-08-24T06:06:12;10.27;;;7.85;;
52102;SDS011;38101;53.126;6.878;2023-08-24T06:08:37;10.15;;;7.80;;
52102;SDS011;38101;53.126;6.878;2023-08-24T06:11:03;13.05;;;8.45;;
52102;SDS011;38101;53.126;6.878;2023-08-24T06:13:29;11.00;;;7.88;;
52102;SDS011;38101;53.126;6.878;2023-08-24T06:15:55;11.48;;;8.45;;
52102;SDS011;38101;53.126;6.878;2023-08-24T06:18:20;11.93;;;8.07;;
52102;SDS011;38101;53.126;6.878;2023-08-24T06:20:46;17.77;;;9.55;;
52102;SDS011;38101;53.126;6.878;2023-08-24T06:23:14;12.35;;;8.85;;
52102;SDS011;38101;53.126;6.878;2023-08-24T06:25:41;10.60;;;8.25;;
52102;SDS011;38101;53.126;6.878;2023-08-24T06:28:07;14.25;;;9.10;;
52102;SDS011;38101;53.126;6.878;2023-08-24T06:30:37;10.80;;;8.65;;
52102;SDS011;38101;53.126;6.878;2023-08-24T06:33:04;14.65;;;8.73;;
52102;SDS011;38101;53.126;6.878;2023-08-24T06:35:31;12.65;;;7.97;;
52102;SDS011;38101;53.126;6.878;2023-08-24T06:37:58;11.70;;;9.35;;
52102;SDS011;38101;53.126;6.878;2023-08-24T06:40:24;11.32;;;7.93;;
52102;SDS011;38101;53.126;6.878;2023-08-24T06:42:49;12.38;;;8.55;;
52102;SDS011;38101;53.126;6.878;2023-08-24T06:45:15;9.60;;;7.68;;
52102;SDS011;38101;53.126;6.878;2023-08-24T06:47:43;13.40;;;7.40;;
52102;SDS011;38101;53.126;6.878;2023-08-24T06:50:09;9.80;;;7.40;;
52102;SDS011;38101;53.126;6.878;2023-08-24T06:52:35;10.02;;;7.25;;
52102;SDS011;38101;53.126;6.878;2023-08-24T06:55:01;10.27;;;8.20;;
52102;SDS011;38101;53.126;6.878;2023-08-24T06:57:27;12.38;;;7.85;;
52102;SDS011;38101;53.126;6.878;2023-08-24T06:59:52;11.48;;;7.63;;
52102;SDS011;38101;53.126;6.878;2023-08-24T07:02:18;10.70;;;7.22;;
52102;SDS011;38101;53.126;6.878;2023-08-24T07:04:44;10.32;;;6.97;;
52102;SDS011;38101;53.126;6.878;2023-08-24T07:07:10;9.82;;;7.68;;
52102;SDS011;38101;53.126;6.878;2023-08-24T07:09:36;8.35;;;7.38;;
52102;SDS011;38101;53.126;6.878;2023-08-24T07:12:02;12.00;;;7.95;;
52102;SDS011;38101;53.126;6.878;2023-08-24T07:14:28;9.13;;;8.00;;
52102;SDS011;38101;53.126;6.878;2023-08-24T07:16:54;12.65;;;7.80;;
52102;SDS011;38101;53.126;6.878;2023-08-24T07:19:20;9.57;;;7.43;;
52102;SDS011;38101;53.126;6.878;2023-08-24T07:21:46;10.85;;;8.10;;
52102;SDS011;38101;53.126;6.878;2023-08-24T07:24:11;10.30;;;8.07;;
52102;SDS011;38101;53.126;6.878;2023-08-24T07:26:37;11.05;;;7.50;;
52102;SDS011;38101;53.126;6.878;2023-08-24T07:29:03;9.48;;;7.57;;
52102;SDS011;38101;53.126;6.878;2023-08-24T07:31:28;13.38;;;8.40;;
52102;SDS011;38101;53.126;6.878;2023-08-24T07:33:54;10.43;;;7.28;;
52102;SDS011;38101;53.126;6.878;2023-08-24T07:36:20;8.52;;;7.18;;
52102;SDS011;38101;53.126;6.878;2023-08-24T07:38:45;9.95;;;8.30;;
52102;SDS011;38101;53.126;6.878;2023-08-24T07:41:14;10.52;;;7.80;;
52102;SDS011;38101;53.126;6.878;2023-08-24T07:43:39;9.73;;;7.13;;
52102;SDS011;38101;53.126;6.878;2023-08-24T07:46:05;9.80;;;7.30;;
52102;SDS011;38101;53.126;6.878;2023-08-24T07:48:31;8.82;;;7.32;;
52102;SDS011;38101;53.126;6.878;2023-08-24T07:50:57;8.80;;;7.53;;
52102;SDS011;38101;53.126;6.878;2023-08-24T07:53:23;9.25;;;7.07;;
52102;SDS011;38101;53.126;6.878;2023-08-24T07:55:48;7.95;;;6.47;;
52102;SDS011;38101;53.126;6.878;2023-08-24T07:58:14;11.93;;;6.60;;
52102;SDS011;38101;53.126;6.878;2023-08-24T08:00:40;9.88;;;6.20;;
52102;SDS011;38101;53.126;6.878;2023-08-24T08:03:06;9.30;;;5.88;;
52102;SDS011;38101;53.126;6.878;2023-08-24T08:05:31;7.93;;;5.80;;
52102;SDS011;38101;53.126;6.878;2023-08-24T08:07:57;7.63;;;6.20;;
52102;SDS011;38101;53.126;6.878;2023-08-24T08:10:23;10.20;;;6.43;;
52102;SDS011;38101;53.126;6.878;2023-08-24T08:12:49;10.13;;;5.95;;
52102;SDS011;38101;53.126;6.878;2023-08-24T08:15:14;11.45;;;7.03;;
52102;SDS011;38101;53.126;6.878;2023-08-24T08:17:40;8.45;;;5.43;;
52102;SDS011;38101;53.126;6.878;2023-08-24T08:20:07;11.55;;;6.70;;
52102;SDS011;38101;53.126;6.878;2023-08-24T08:22:33;11.88;;;5.22;;
52102;SDS011;38101;53.126;6.878;2023-08-24T08:25:03;8.02;;;5.10;;
52102;SDS011;38101;53.126;6.878;2023-08-24T08:27:30;8.77;;;5.28;;
52102;SDS011;38101;53.126;6.878;2023-08-24T08:29:56;9.50;;;5.50;;
52102;SDS011;38101;53.126;6.878;2023-08-24T08:32:21;9.25;;;5.38;;
52102;SDS011;38101;53.126;6.878;2023-08-24T08:34:52;8.05;;;5.30;;
52102;SDS011;38101;53.126;6.878;2023-08-24T08:37:25;8.80;;;5.60;;
52102;SDS011;38101;53.126;6.878;2023-08-24T08:39:51;8.88;;;5.30;;
52102;SDS011;38101;53.126;6.878;2023-08-24T08:42:16;8.48;;;4.82;;
52102;SDS011;38101;53.126;6.878;2023-08-24T08:44:43;8.82;;;5.40;;
52102;SDS011;38101;53.126;6.878;2023-08-24T08:47:10;8.05;;;5.30;;
52102;SDS011;38101;53.126;6.878;2023-08-24T08:49:37;7.22;;;4.47;;
52102;SDS011;38101;53.126;6.878;2023-08-24T08:52:04;9.10;;;5.32;;
52102;SDS011;38101;53.126;6.878;2023-08-24T08:54:31;8.05;;;4.85;;
52102;SDS011;38101;53.126;6.878;2023-08-24T08:57:00;8.95;;;5.53;;
52102;SDS011;38101;53.126;6.878;2023-08-24T08:59:27;12.43;;;5.57;;
52102;SDS011;38101;53.126;6.878;2023-08-24T09:01:56;7.32;;;4.63;;
52102;SDS011;38101;53.126;6.878;2023-08-24T09:04:41;8.02;;;4.90;;
52102;SDS011;38101;53.126;6.878;2023-08-24T09:07:09;9.15;;;4.68;;
52102;SDS011;38101;53.126;6.878;2023-08-24T09:09:37;10.38;;;5.70;;
52102;SDS011;38101;53.126;6.878;2023-08-24T09:12:05;10.68;;;5.53;;
52102;SDS011;38101;53.126;6.878;2023-08-24T09:14:32;9.98;;;5.63;;
52102;SDS011;38101;53.126;6.878;2023-08-24T09:16:58;9.35;;;4.90;;
52102;SDS011;38101;53.126;6.878;2023-08-24T09:19:27;7.88;;;4.85;;
52102;SDS011;38101;53.126;6.878;2023-08-24T09:21:57;7.20;;;4.75;;
52102;SDS011;38101;53.126;6.878;2023-08-24T09:24:30;8.20;;;4.90;;
52102;SDS011;38101;53.126;6.878;2023-08-24T09:26:57;9.32;;;4.82;;
52102;SDS011;38101;53.126;6.878;2023-08-24T09:29:23;7.05;;;4.85;;
52102;SDS011;38101;53.126;6.878;2023-08-24T09:31:50;9.50;;;5.40;;
52102;SDS011;38101;53.126;6.878;2023-08-24T09:34:18;9.70;;;5.63;;
52102;SDS011;38101;53.126;6.878;2023-08-24T09:36:48;8.05;;;5.32;;
52102;SDS011;38101;53.126;6.878;2023-08-24T09:39:16;7.57;;;5.03;;
52102;SDS011;38101;53.126;6.878;2023-08-24T09:41:49;8.93;;;5.25;;
52102;SDS011;38101;53.126;6.878;2023-08-24T09:44:18;9.05;;;5.70;;
52102;SDS011;38101;53.126;6.878;2023-08-24T09:46:44;9.32;;;5.97;;
52102;SDS011;38101;53.126;6.878;2023-08-24T09:49:11;9.98;;;6.05;;
52102;SDS011;38101;53.126;6.878;2023-08-24T09:51:38;10.45;;;5.75;;
52102;SDS011;38101;53.126;6.878;2023-08-24T09:54:07;10.77;;;6.43;;
52102;SDS011;38101;53.126;6.878;2023-08-24T09:56:34;10.18;;;5.68;;
52102;SDS011;38101;53.126;6.878;2023-08-24T09:59:05;9.95;;;5.80;;
52102;SDS011;38101;53.126;6.878;2023-08-24T10:01:38;11.02;;;5.82;;
52102;SDS011;38101;53.126;6.878;2023-08-24T10:04:08;11.77;;;6.20;;
52102;SDS011;38101;53.126;6.878;2023-08-24T10:06:34;9.02;;;5.82;;
52102;SDS011;38101;53.126;6.878;2023-08-24T10:09:02;9.80;;;5.80;;
52102;SDS011;38101;53.126;6.878;2023-08-24T10:11:34;8.93;;;5.03;;
52102;SDS011;38101;53.126;6.878;2023-08-24T10:14:05;10.30;;;5.55;;
52102;SDS011;38101;53.126;6.878;2023-08-24T10:16:37;10.32;;;5.57;;
52102;SDS011;38101;53.126;6.878;2023-08-24T10:19:04;7.70;;;5.03;;
52102;SDS011;38101;53.126;6.878;2023-08-24T10:21:30;9.60;;;5.07;;
52102;SDS011;38101;53.126;6.878;2023-08-24T10:23:57;10.10;;;6.40;;
52102;SDS011;38101;53.126;6.878;2023-08-24T10:26:23;7.57;;;5.53;;
52102;SDS011;38101;53.126;6.878;2023-08-24T10:28:52;9.18;;;5.95;;
52102;SDS011;38101;53.126;6.878;2023-08-24T10:31:18;9.55;;;6.13;;
52102;SDS011;38101;53.126;6.878;2023-08-24T10:33:45;9.18;;;5.78;;
52102;SDS011;38101;53.126;6.878;2023-08-24T10:36:15;9.40;;;6.90;;
52102;SDS011;38101;53.126;6.878;2023-08-24T10:38:43;8.45;;;6.13;;
52102;SDS011;38101;53.126;6.878;2023-08-24T10:41:09;8.88;;;6.60;;
52102;SDS011;38101;53.126;6.878;2023-08-24T10:43:39;11.95;;;7.00;;
52102;SDS011;38101;53.126;6.878;2023-08-24T10:46:11;9.98;;;6.45;;
52102;SDS011;38101;53.126;6.878;2023-08-24T10:53:42;9.38;;;6.25;;
52102;SDS011;38101;53.126;6.878;2023-08-24T10:56:10;7.60;;;6.75;;
52102;SDS011;38101;53.126;6.878;2023-08-24T10:58:43;10.55;;;6.82;;
52102;SDS011;38101;53.126;6.878;2023-08-24T11:01:19;10.52;;;7.13;;
52102;SDS011;38101;53.126;6.878;2023-08-24T11:03:54;8.00;;;6.85;;
52102;SDS011;38101;53.126;6.878;2023-08-24T11:06:21;7.57;;;6.68;;
52102;SDS011;38101;53.126;6.878;2023-08-24T11:08:48;7.25;;;5.85;;
52102;SDS011;38101;53.126;6.878;2023-08-24T11:11:18;7.95;;;5.80;;
52102;SDS011;38101;53.126;6.878;2023-08-24T11:14:12;11.52;;;7.57;;
52102;SDS011;38101;53.126;6.878;2023-08-24T11:16:51;9.32;;;6.68;;
52102;SDS011;38101;53.126;6.878;2023-08-24T11:19:18;8.43;;;6.05;;
52102;SDS011;38101;53.126;6.878;2023-08-24T11:21:44;13.85;;;6.47;;
52102;SDS011;38101;53.126;6.878;2023-08-24T11:24:15;12.00;;;6.60;;
52102;SDS011;38101;53.126;6.878;2023-08-24T11:26:42;11.18;;;6.28;;
52102;SDS011;38101;53.126;6.878;2023-08-24T11:29:09;8.63;;;6.43;;
52102;SDS011;38101;53.126;6.878;2023-08-24T11:31:35;10.65;;;6.32;;
52102;SDS011;38101;53.126;6.878;2023-08-24T11:34:02;11.25;;;5.97;;
52102;SDS011;38101;53.126;6.878;2023-08-24T11:36:29;8.85;;;5.82;;
52102;SDS011;38101;53.126;6.878;2023-08-24T11:38:56;6.40;;;5.28;;
52102;SDS011;38101;53.126;6.878;2023-08-24T11:41:24;10.95;;;5.80;;
52102;SDS011;38101;53.126;6.878;2023-08-24T11:43:58;8.23;;;6.22;;
52102;SDS011;38101;53.126;6.878;2023-08-24T11:46:24;9.60;;;5.95;;
52102;SDS011;38101;53.126;6.878;2023-08-24T11:48:50;8.43;;;5.28;;
52102;SDS011;38101;53.126;6.878;2023-08-24T11:51:16;10.30;;;6.63;;
52102;SDS011;38101;53.126;6.878;2023-08-24T11:53:43;8.60;;;6.00;;
52102;SDS011;38101;53.126;6.878;2023-08-24T11:56:09;9.68;;;5.57;;
52102;SDS011;38101;53.126;6.878;2023-08-24T11:58:42;12.00;;;6.72;;
52102;SDS011;38101;53.126;6.878;2023-08-24T12:01:12;9.35;;;5.63;;
52102;SDS011;38101;53.126;6.878;2023-08-24T12:03:38;10.85;;;5.57;;
52102;SDS011;38101;53.126;6.878;2023-08-24T12:06:14;10.40;;;5.28;;
52102;SDS011;38101;53.126;6.878;2023-08-24T12:08:42;10.05;;;5.47;;
52102;SDS011;38101;53.126;6.878;2023-08-24T12:11:16;9.48;;;5.88;;
52102;SDS011;38101;53.126;6.878;2023-08-24T12:13:47;8.57;;;5.72;;
52102;SDS011;38101;53.126;6.878;2023-08-24T12:16:18;9.25;;;5.20;;
52102;SDS011;38101;53.126;6.878;2023-08-24T12:18:51;9.35;;;5.85;;
52102;SDS011;38101;53.126;6.878;2023-08-24T12:24:01;7.07;;;5.07;;
52102;SDS011;38101;53.126;6.878;2023-08-24T12:26:34;7.00;;;4.55;;
52102;SDS011;38101;53.126;6.878;2023-08-24T12:29:02;5.78;;;4.70;;
52102;SDS011;38101;53.126;6.878;2023-08-24T12:31:30;6.70;;;4.57;;
52102;SDS011;38101;53.126;6.878;2023-08-24T12:34:00;9.00;;;5.90;;
52102;SDS011;38101;53.126;6.878;2023-08-24T12:36:33;7.18;;;5.65;;
52102;SDS011;38101;53.126;6.878;2023-08-24T12:39:01;8.70;;;5.70;;
52102;SDS011;38101;53.126;6.878;2023-08-24T12:41:29;7.82;;;6.05;;
52102;SDS011;38101;53.126;6.878;2023-08-24T12:43:55;8.30;;;5.35;;
52102;SDS011;38101;53.126;6.878;2023-08-24T12:46:20;6.18;;;4.88;;
52102;SDS011;38101;53.126;6.878;2023-08-24T12:48:46;9.55;;;5.85;;
52102;SDS011;38101;53.126;6.878;2023-08-24T12:51:12;8.05;;;6.20;;
52102;SDS011;38101;53.126;6.878;2023-08-24T12:53:38;7.32;;;5.47;;
52102;SDS011;38101;53.126;6.878;2023-08-24T12:56:03;7.13;;;5.60;;
52102;SDS011;38101;53.126;6.878;2023-08-24T12:58:29;6.75;;;5.47;;
52102;SDS011;38101;53.126;6.878;2023-08-24T13:00:56;9.05;;;5.57;;
52102;SDS011;38101;53.126;6.878;2023-08-24T13:03:21;9.27;;;5.28;;
52102;SDS011;38101;53.126;6.878;2023-08-24T13:05:47;10.57;;;6.18;;
52102;SDS011;38101;53.126;6.878;2023-08-24T13:08:13;9.10;;;5.35;;
52102;SDS011;38101;53.126;6.878;2023-08-24T13:10:39;9.20;;;6.43;;
52102;SDS011;38101;53.126;6.878;2023-08-24T13:13:05;9.02;;;5.65;;
52102;SDS011;38101;53.126;6.878;2023-08-24T13:15:30;9.52;;;6.22;;
52102;SDS011;38101;53.126;6.878;2023-08-24T13:17:56;11.27;;;6.57;;
52102;SDS011;38101;53.126;6.878;2023-08-24T13:20:23;12.35;;;5.47;;
52102;SDS011;38101;53.126;6.878;2023-08-24T13:22:49;10.25;;;5.35;;
52102;SDS011;38101;53.126;6.878;2023-08-24T13:25:14;8.75;;;6.30;;
52102;SDS011;38101;53.126;6.878;2023-08-24T13:27:40;9.88;;;6.25;;
52102;SDS011;38101;53.126;6.878;2023-08-24T13:30:06;7.38;;;5.63;;
52102;SDS011;38101;53.126;6.878;2023-08-24T13:32:32;6.38;;;4.85;;
52102;SDS011;38101;53.126;6.878;2023-08-24T13:35:00;7.95;;;6.13;;
52102;SDS011;38101;53.126;6.878;2023-08-24T13:37:26;7.03;;;6.32;;
52102;SDS011;38101;53.126;6.878;2023-08-24T13:39:51;10.10;;;6.68;;
52102;SDS011;38101;53.126;6.878;2023-08-24T13:42:17;8.20;;;6.13;;
52102;SDS011;38101;53.126;6.878;2023-08-24T13:44:44;14.30;;;6.05;;
52102;SDS011;38101;53.126;6.878;2023-08-24T13:47:11;7.80;;;6.28;;
52102;SDS011;38101;53.126;6.878;2023-08-24T13:49:36;7.32;;;5.50;;
52102;SDS011;38101;53.126;6.878;2023-08-24T13:52:02;9.57;;;5.57;;
52102;SDS011;38101;53.126;6.878;2023-08-24T13:54:29;9.48;;;5.97;;
52102;SDS011;38101;53.126;6.878;2023-08-24T13:56:55;8.57;;;5.88;;
52102;SDS011;38101;53.126;6.878;2023-08-24T13:59:23;10.07;;;6.63;;
52102;SDS011;38101;53.126;6.878;2023-08-24T14:01:49;8.07;;;7.18;;
52102;SDS011;38101;53.126;6.878;2023-08-24T14:04:15;10.07;;;6.72;;
52102;SDS011;38101;53.126;6.878;2023-08-24T14:06:41;9.07;;;6.93;;
52102;SDS011;38101;53.126;6.878;2023-08-24T14:09:06;7.80;;;6.75;;
52102;SDS011;38101;53.126;6.878;2023-08-24T14:11:32;6.53;;;5.78;;
52102;SDS011;38101;53.126;6.878;2023-08-24T14:13:58;11.93;;;6.72;;
52102;SDS011;38101;53.126;6.878;2023-08-24T14:16:25;11.55;;;6.78;;
52102;SDS011;38101;53.126;6.878;2023-08-24T14:18:51;7.65;;;6.03;;
52102;SDS011;38101;53.126;6.878;2023-08-24T14:21:18;7.75;;;5.47;;
52102;SDS011;38101;53.126;6.878;2023-08-24T14:23:48;7.75;;;5.75;;
52102;SDS011;38101;53.126;6.878;2023-08-24T14:26:14;6.53;;;5.05;;
52102;SDS011;38101;53.126;6.878;2023-08-24T14:29:13;6.53;;;5.10;;
52102;SDS011;38101;53.126;6.878;2023-08-24T14:31:32;11.70;;;5.50;;
52102;SDS011;38101;53.126;6.878;2023-08-24T14:33:57;9.73;;;5.65;;
52102;SDS011;38101;53.126;6.878;2023-08-24T14:36:23;7.38;;;5.68;;
52102;SDS011;38101;53.126;6.878;2023-08-24T14:38:49;7.70;;;5.65;;
52102;SDS011;38101;53.126;6.878;2023-08-24T14:41:18;10.88;;;6.25;;
52102;SDS011;38101;53.126;6.878;2023-08-24T14:43:44;7.88;;;6.22;;
52102;SDS011;38101;53.126;6.878;2023-08-24T14:46:11;7.63;;;5.63;;
52102;SDS011;38101;53.126;6.878;2023-08-24T14:48:37;10.65;;;6.13;;
52102;SDS011;38101;53.126;6.878;2023-08-24T14:51:04;7.10;;;5.97;;
52102;SDS011;38101;53.126;6.878;2023-08-24T14:53:30;9.15;;;6.72;;
52102;SDS011;38101;53.126;6.878;2023-08-24T14:55:56;9.70;;;6.13;;
52102;SDS011;38101;53.126;6.878;2023-08-24T14:58:23;8.73;;;5.88;;